Time;durP1;ratioP1;P1;durP2;ratioP2;P2;SDS_P1;SDS_P2;PMS_P1;PMS_P2;Temp;Humidity;BMP_temperature;BMP_pressure;BME280_temperature;BME280_humidity;BME280_pressure;Samples;Min_cycle;Max_cycle;Signal;HPM_P1;HPM_P2
2020/12/26 00:01:18;;;;;;;1.40;1.30;;;7.50;99.90;;;;;;5050924;28;20362;-71
2020/12/26 00:03:45;;;;;;;1.20;1.20;;;7.50;99.90;;;;;;5051756;28;20021;-72
2020/12/26 00:06:18;;;;;;;1.45;1.35;;;7.50;99.90;;;;;;5051865;28;20079;-72
2020/12/26 00:08:44;;;;;;;1.42;1.33;;;7.50;99.90;;;;;;5051980;28;20025;-72
2020/12/26 00:11:12;;;;;;;1.00;1.00;;;7.50;99.90;;;;;;5051942;28;20496;-72
2020/12/26 00:13:38;;;;;;;1.48;1.38;;;7.40;99.90;;;;;;5050779;28;20028;-72
2020/12/26 00:16:10;;;;;;;1.20;1.20;;;7.50;99.90;;;;;;5051656;28;20469;-72
2020/12/26 00:18:36;;;;;;;1.52;1.35;;;7.50;99.90;;;;;;5052372;28;20423;-72
2020/12/26 00:21:06;;;;;;;1.40;1.30;;;7.40;99.90;;;;;;5052138;28;20033;-72
2020/12/26 00:23:31;;;;;;;1.20;1.20;;;7.50;99.90;;;;;;5051818;28;20016;-72
2020/12/26 00:25:57;;;;;;;1.48;1.35;;;7.50;99.90;;;;;;5052046;28;20452;-72
2020/12/26 00:28:23;;;;;;;1.20;1.20;;;7.40;99.90;;;;;;5052311;28;20029;-72
2020/12/26 00:30:48;;;;;;;1.30;1.20;;;7.40;99.90;;;;;;5051496;28;20127;-73
2020/12/26 00:33:14;;;;;;;1.38;1.27;;;7.40;99.90;;;;;;5051230;28;20036;-72
2020/12/26 00:35:40;;;;;;;1.30;1.20;;;7.40;99.90;;;;;;5038457;28;20377;-72
2020/12/26 00:38:05;;;;;;;1.40;1.30;;;7.40;99.90;;;;;;5051132;28;20021;-73
2020/12/26 00:40:31;;;;;;;1.58;1.30;;;7.40;99.90;;;;;;5052878;28;20095;-72
2020/12/26 00:42:57;;;;;;;1.00;1.00;;;7.40;99.90;;;;;;5059761;28;20021;-72
2020/12/26 00:45:22;;;;;;;1.40;1.30;;;7.30;99.90;;;;;;5033390;28;20029;-72
2020/12/26 00:47:48;;;;;;;1.52;1.42;;;7.30;99.90;;;;;;5051271;28;20079;-72
2020/12/26 00:50:14;;;;;;;1.30;1.20;;;7.40;99.90;;;;;;5051365;28;20449;-72
2020/12/26 00:52:40;;;;;;;1.30;1.20;;;7.40;99.90;;;;;;5051558;28;20460;-72
2020/12/26 00:55:05;;;;;;;1.20;1.20;;;7.40;99.90;;;;;;5051392;28;20477;-72
2020/12/26 00:57:33;;;;;;;1.15;1.15;;;7.40;99.90;;;;;;5054569;28;20032;-72
2020/12/26 00:59:59;;;;;;;1.38;1.27;;;7.40;99.90;;;;;;5072952;28;20028;-72
2020/12/26 01:02:25;;;;;;;1.38;1.25;;;7.30;99.90;;;;;;5072966;28;20163;-72
2020/12/26 01:04:50;;;;;;;2.50;1.30;;;7.40;99.90;;;;;;5061216;28;20058;-72
2020/12/26 01:07:16;;;;;;;1.10;1.10;;;7.30;99.90;;;;;;5075127;28;20025;-72
2020/12/26 01:09:42;;;;;;;1.25;1.15;;;7.30;99.90;;;;;;5074704;28;20032;-72
2020/12/26 01:12:07;;;;;;;1.40;1.30;;;7.30;99.90;;;;;;5074784;28;20021;-72
2020/12/26 01:14:33;;;;;;;1.42;1.33;;;7.30;99.90;;;;;;5071017;28;20373;-72
2020/12/26 01:16:59;;;;;;;1.58;1.48;;;7.30;99.90;;;;;;5055079;28;20037;-72
2020/12/26 01:19:27;;;;;;;2.13;1.30;;;7.30;99.90;;;;;;5068509;28;20115;-72
2020/12/26 01:21:53;;;;;;;1.48;1.38;;;7.20;99.90;;;;;;5065203;28;20023;-72
2020/12/26 01:24:20;;;;;;;2.08;1.30;;;7.20;99.90;;;;;;5058892;28;20039;-72
2020/12/26 01:26:49;;;;;;;1.67;1.45;;;7.20;99.90;;;;;;5055103;28;20079;-73
2020/12/26 01:29:15;;;;;;;1.20;1.20;;;7.20;99.90;;;;;;5054984;28;20033;-72
2020/12/26 01:31:41;;;;;;;1.45;1.35;;;7.20;99.90;;;;;;5055227;28;20032;-71
2020/12/26 01:34:07;;;;;;;1.30;1.20;;;7.20;99.90;;;;;;5054807;28;20104;-72
2020/12/26 01:36:33;;;;;;;1.42;1.33;;;7.20;99.90;;;;;;5054610;28;20385;-72
2020/12/26 01:38:59;;;;;;;1.80;1.63;;;7.10;99.90;;;;;;5053153;28;20100;-72
2020/12/26 01:41:24;;;;;;;1.45;1.35;;;7.10;99.90;;;;;;5054267;28;20033;-72
2020/12/26 01:43:58;;;;;;;1.50;1.40;;;7.10;99.90;;;;;;5054412;28;20033;-72
2020/12/26 01:46:27;;;;;;;1.48;1.38;;;7.10;99.90;;;;;;5046641;28;20025;-72
2020/12/26 01:48:53;;;;;;;1.80;1.70;;;7.10;99.90;;;;;;5034214;28;20470;-72
2020/12/26 01:51:21;;;;;;;1.60;1.50;;;7.10;99.90;;;;;;5034885;28;20064;-72
2020/12/26 01:53:48;;;;;;;3.70;1.50;;;7.10;99.90;;;;;;5034737;28;20022;-72
2020/12/26 01:56:14;;;;;;;1.58;1.45;;;7.10;99.90;;;;;;5034510;28;20033;-72
2020/12/26 01:58:43;;;;;;;3.80;1.60;;;7.10;99.90;;;;;;5034006;28;20018;-72
2020/12/26 02:01:09;;;;;;;1.40;1.30;;;7.10;99.90;;;;;;5042210;28;20013;-72
2020/12/26 02:03:35;;;;;;;1.63;1.52;;;7.00;99.90;;;;;;5043620;28;20024;-72
2020/12/26 02:06:01;;;;;;;1.50;1.40;;;7.00;99.90;;;;;;5038915;28;20026;-72
2020/12/26 02:08:27;;;;;;;1.40;1.30;;;7.00;99.90;;;;;;5034639;28;20059;-72
2020/12/26 02:10:52;;;;;;;1.67;1.58;;;7.00;99.90;;;;;;5034123;28;20034;-72
2020/12/26 02:13:18;;;;;;;1.50;1.40;;;6.90;99.90;;;;;;5047845;28;20048;-72
2020/12/26 02:15:43;;;;;;;1.60;1.50;;;6.90;99.90;;;;;;5033850;28;20041;-72
2020/12/26 02:18:09;;;;;;;1.45;1.35;;;6.90;99.90;;;;;;5043231;28;20017;-72
2020/12/26 02:20:36;;;;;;;1.83;1.65;;;6.90;99.90;;;;;;5036063;28;20033;-72
2020/12/26 02:23:03;;;;;;;2.22;1.63;;;7.00;99.90;;;;;;5042630;28;20017;-72
2020/12/26 02:25:29;;;;;;;2.10;1.90;;;6.90;99.90;;;;;;5034088;28;20035;-72
2020/12/26 02:27:55;;;;;;;1.88;1.77;;;6.90;99.90;;;;;;5034234;28;20025;-72
2020/12/26 02:30:21;;;;;;;1.77;1.67;;;6.90;99.90;;;;;;5034046;28;20041;-72
2020/12/26 02:32:47;;;;;;;1.80;1.70;;;6.90;99.90;;;;;;5034112;28;20022;-72
2020/12/26 02:35:12;;;;;;;2.17;1.75;;;6.90;99.90;;;;;;5033496;28;20103;-72
2020/12/26 02:37:38;;;;;;;1.60;1.50;;;6.90;99.90;;;;;;5033555;28;20029;-71
2020/12/26 02:40:04;;;;;;;1.70;1.60;;;6.90;99.90;;;;;;5033374;28;20555;-72
2020/12/26 02:42:29;;;;;;;1.88;1.65;;;6.90;99.90;;;;;;5033802;28;20561;-72
2020/12/26 02:44:55;;;;;;;1.90;1.70;;;6.80;99.90;;;;;;5033382;28;20060;-72
2020/12/26 02:47:21;;;;;;;2.40;2.20;;;6.80;99.90;;;;;;5033144;28;20017;-72
2020/12/26 02:49:47;;;;;;;1.60;1.50;;;6.80;99.90;;;;;;5033400;28;20415;-72
2020/12/26 02:52:12;;;;;;;3.25;2.05;;;6.80;99.90;;;;;;5033265;28;20525;-72
2020/12/26 02:54:38;;;;;;;2.28;2.08;;;6.80;99.90;;;;;;5033517;28;20036;-73
2020/12/26 02:57:04;;;;;;;2.38;2.17;;;6.70;99.90;;;;;;5033118;28;20017;-72
2020/12/26 02:59:29;;;;;;;2.40;2.20;;;6.70;99.90;;;;;;5033277;28;20053;-72
2020/12/26 03:01:55;;;;;;;4.53;2.38;;;6.70;99.90;;;;;;5033219;28;20026;-73
2020/12/26 03:04:20;;;;;;;2.13;2.03;;;6.70;99.90;;;;;;5033522;28;20029;-72
2020/12/26 03:06:46;;;;;;;3.53;2.95;;;6.70;99.90;;;;;;5033261;28;20436;-72
2020/12/26 03:09:12;;;;;;;3.00;2.70;;;6.70;99.90;;;;;;5032865;28;20378;-72
2020/12/26 03:11:37;;;;;;;4.07;2.90;;;6.70;99.90;;;;;;5033314;28;20025;-72
2020/12/26 03:14:03;;;;;;;2.45;2.08;;;6.70;99.90;;;;;;5033164;28;20029;-72
2020/12/26 03:16:29;;;;;;;2.13;1.92;;;6.70;99.90;;;;;;5033160;28;20076;-72
2020/12/26 03:18:54;;;;;;;1.88;1.77;;;6.70;99.90;;;;;;5033130;28;20025;-72
2020/12/26 03:21:20;;;;;;;2.30;1.90;;;6.70;99.90;;;;;;5032239;28;20100;-72
2020/12/26 03:23:46;;;;;;;2.30;2.10;;;6.80;99.90;;;;;;5032646;28;20025;-72
2020/12/26 03:26:12;;;;;;;3.55;2.00;;;6.80;99.90;;;;;;5032732;28;20025;-71
2020/12/26 03:28:37;;;;;;;1.88;1.77;;;6.80;99.90;;;;;;5032620;28;20045;-72
2020/12/26 03:31:04;;;;;;;1.90;1.80;;;6.80;99.90;;;;;;5032773;28;20037;-72
2020/12/26 03:33:30;;;;;;;1.92;1.80;;;6.80;99.90;;;;;;5032600;28;20413;-72
2020/12/26 03:35:56;;;;;;;4.50;1.95;;;6.80;99.90;;;;;;5032570;28;20022;-72
2020/12/26 03:38:21;;;;;;;2.03;1.85;;;6.80;99.90;;;;;;5032702;28;20067;-72
2020/12/26 03:40:47;;;;;;;2.08;1.88;;;6.90;99.90;;;;;;5048975;28;20041;-72
2020/12/26 03:43:12;;;;;;;2.20;2.00;;;6.90;99.90;;;;;;5052324;28;20060;-72
2020/12/26 03:45:38;;;;;;;2.38;2.17;;;6.90;99.90;;;;;;5052456;28;20423;-72
2020/12/26 03:48:04;;;;;;;3.75;2.58;;;6.80;99.90;;;;;;5052515;28;20032;-72
2020/12/26 03:50:29;;;;;;;2.40;2.22;;;6.80;99.90;;;;;;5052205;28;20037;-72
2020/12/26 03:52:55;;;;;;;2.38;2.17;;;6.80;99.90;;;;;;5052191;28;20036;-72
2020/12/26 03:55:21;;;;;;;2.53;2.33;;;6.80;99.90;;;;;;5050853;28;20108;-72
2020/12/26 03:57:46;;;;;;;2.85;2.30;;;6.80;99.90;;;;;;5051954;28;20036;-72
2020/12/26 04:00:12;;;;;;;6.57;2.40;;;6.70;99.90;;;;;;5052232;28;20040;-72
2020/12/26 04:02:37;;;;;;;2.75;2.10;;;6.70;99.90;;;;;;5052181;28;20024;-73
2020/12/26 04:05:03;;;;;;;2.63;2.13;;;6.70;99.90;;;;;;5051889;28;20056;-72
2020/12/26 04:07:29;;;;;;;2.38;2.17;;;6.80;99.90;;;;;;5051559;28;20028;-72
2020/12/26 04:09:54;;;;;;;2.42;1.83;;;6.80;99.90;;;;;;5052010;28;20041;-72
2020/12/26 04:12:20;;;;;;;2.55;2.35;;;6.80;99.90;;;;;;5052166;28;20021;-73
2020/12/26 04:14:46;;;;;;;2.30;2.10;;;6.80;99.90;;;;;;5051936;28;20025;-72
2020/12/26 04:17:12;;;;;;;2.38;2.17;;;6.80;99.90;;;;;;5051966;28;20358;-72
2020/12/26 04:19:37;;;;;;;2.38;2.17;;;6.80;99.90;;;;;;5051510;28;20116;-72
2020/12/26 04:22:03;;;;;;;2.20;2.00;;;6.80;99.90;;;;;;5052076;28;20090;-72
2020/12/26 04:24:29;;;;;;;2.40;2.20;;;6.70;99.90;;;;;;5051788;28;20079;-72
2020/12/26 04:26:54;;;;;;;2.55;2.30;;;6.70;99.90;;;;;;5051308;28;20052;-72
2020/12/26 04:29:21;;;;;;;3.00;2.75;;;6.70;99.90;;;;;;5051573;28;20028;-72
2020/12/26 04:31:48;;;;;;;2.55;2.20;;;6.70;99.90;;;;;;5051823;28;20036;-73
2020/12/26 04:34:14;;;;;;;2.40;2.20;;;6.70;99.90;;;;;;5050581;28;20024;-72
2020/12/26 04:36:40;;;;;;;2.08;1.88;;;6.70;99.90;;;;;;5051576;28;20036;-72
2020/12/26 04:39:05;;;;;;;2.45;2.25;;;6.70;99.90;;;;;;5051759;28;20029;-72
2020/12/26 04:41:32;;;;;;;2.30;2.10;;;6.70;99.90;;;;;;5051460;28;20469;-72
2020/12/26 04:44:00;;;;;;;2.70;2.50;;;6.80;99.90;;;;;;5051390;28;20024;-72
2020/12/26 04:46:27;;;;;;;2.75;2.42;;;6.70;99.90;;;;;;5051185;28;20021;-72
2020/12/26 04:49:05;;;;;;;2.53;2.33;;;6.70;99.90;;;;;;5050746;28;20020;-72
2020/12/26 04:51:33;;;;;;;2.42;2.22;;;6.70;99.90;;;;;;5051725;28;20366;-72
2020/12/26 04:54:23;;;;;;;2.70;2.50;;;6.70;99.90;;;;;;5051511;28;20065;-72
2020/12/26 04:56:52;;;;;;;16.92;2.40;;;6.70;99.90;;;;;;5051288;28;20032;-72
2020/12/26 04:59:18;;;;;;;3.00;2.40;;;6.70;99.90;;;;;;5050983;28;20107;-72
2020/12/26 05:01:47;;;;;;;2.40;2.20;;;6.70;99.90;;;;;;5051015;28;20879;-72
2020/12/26 05:04:13;;;;;;;2.83;2.40;;;6.60;99.90;;;;;;5051285;28;20029;-72
2020/12/26 05:06:46;;;;;;;2.55;2.35;;;6.70;99.90;;;;;;5051343;28;20021;-72
2020/12/26 05:09:13;;;;;;;3.08;2.50;;;6.60;99.90;;;;;;5051008;28;20146;-72
2020/12/26 05:11:38;;;;;;;2.90;2.50;;;6.60;99.90;;;;;;5051025;28;20029;-72
2020/12/26 05:14:08;;;;;;;3.38;2.67;;;6.60;99.90;;;;;;5051420;28;20426;-71
2020/12/26 05:16:34;;;;;;;2.58;2.30;;;6.60;99.90;;;;;;5051266;28;20025;-72
2020/12/26 05:19:00;;;;;;;4.93;2.53;;;6.70;99.90;;;;;;5051121;28;20096;-72
2020/12/26 05:21:26;;;;;;;2.42;2.22;;;6.70;99.90;;;;;;5050855;28;20109;-72
2020/12/26 05:24:08;;;;;;;3.08;2.78;;;6.60;99.90;;;;;;5050807;28;20052;-72
2020/12/26 05:26:39;;;;;;;2.55;2.15;;;6.70;99.90;;;;;;5050764;28;20045;-72
2020/12/26 05:29:06;;;;;;;2.72;2.53;;;6.70;99.90;;;;;;5050811;28;20021;-72
2020/12/26 05:31:53;;;;;;;4.07;2.42;;;6.70;99.90;;;;;;5050955;28;20493;-72
2020/12/26 05:34:20;;;;;;;6.15;2.90;;;6.70;99.90;;;;;;5050460;28;20082;-72
2020/12/26 05:36:46;;;;;;;3.40;3.10;;;6.70;99.90;;;;;;5049904;28;20075;-72
2020/12/26 05:39:12;;;;;;;4.35;3.42;;;6.70;99.90;;;;;;5050853;28;20358;-71
2020/12/26 05:41:43;;;;;;;3.50;3.03;;;6.70;99.90;;;;;;5050592;28;20127;-72
2020/12/26 05:44:10;;;;;;;4.20;2.95;;;6.60;99.90;;;;;;5049875;28;20583;-72
2020/12/26 05:46:36;;;;;;;3.67;3.08;;;6.60;99.90;;;;;;5054599;28;20354;-72
2020/12/26 05:49:40;;;;;;;3.10;2.65;;;6.60;99.90;;;;;;5054511;28;20028;-72
2020/12/26 05:52:10;;;;;;;3.30;2.90;;;6.60;99.90;;;;;;5054112;28;20041;-72
2020/12/26 05:54:38;;;;;;;4.07;2.97;;;6.60;99.90;;;;;;5054486;28;20027;-72
2020/12/26 05:57:14;;;;;;;2.70;2.50;;;6.60;99.90;;;;;;5054388;28;20487;-71
2020/12/26 05:59:45;;;;;;;3.38;3.08;;;6.60;99.90;;;;;;5054172;28;20067;-72
2020/12/26 06:02:22;;;;;;;4.22;3.58;;;6.60;99.90;;;;;;5054434;28;20028;-72
2020/12/26 06:05:01;;;;;;;3.35;3.05;;;6.60;99.90;;;;;;5054539;28;20029;-71
2020/12/26 06:07:36;;;;;;;3.00;2.70;;;6.60;99.90;;;;;;5054314;28;20540;-72
2020/12/26 06:10:05;;;;;;;4.47;3.00;;;6.60;99.90;;;;;;5053993;28;20037;-72
2020/12/26 06:12:31;;;;;;;3.03;2.72;;;6.60;99.90;;;;;;5053780;28;20025;-71
2020/12/26 06:14:57;;;;;;;3.97;3.10;;;6.70;99.90;;;;;;5053841;28;20025;-71
2020/12/26 06:17:25;;;;;;;6.57;3.08;;;6.60;99.90;;;;;;5053942;28;20017;-71
2020/12/26 06:19:58;;;;;;;2.97;2.72;;;6.60;99.90;;;;;;5053289;28;20170;-71
2020/12/26 06:22:24;;;;;;;3.65;2.90;;;6.60;99.90;;;;;;5053924;28;20021;-72
2020/12/26 06:24:52;;;;;;;3.00;2.80;;;6.60;99.90;;;;;;5053479;28;20024;-72
2020/12/26 06:27:24;;;;;;;3.58;2.97;;;6.60;99.90;;;;;;5053908;28;20488;-72
2020/12/26 06:29:49;;;;;;;3.03;2.75;;;6.60;99.90;;;;;;5053764;28;20033;-70
2020/12/26 06:32:15;;;;;;;3.63;2.80;;;6.60;99.90;;;;;;5053132;28;20044;-71
2020/12/26 06:34:42;;;;;;;3.30;3.00;;;6.50;99.90;;;;;;5053586;28;20024;-72
2020/12/26 06:37:11;;;;;;;3.47;2.80;;;6.50;99.90;;;;;;5053737;28;20100;-71
2020/12/26 06:39:36;;;;;;;4.18;3.00;;;6.50;99.90;;;;;;5052179;28;20048;-71
2020/12/26 06:42:16;;;;;;;3.85;2.67;;;6.50;99.90;;;;;;5053266;28;20393;-72
2020/12/26 06:44:43;;;;;;;5.43;3.40;;;6.60;99.90;;;;;;5053441;28;20017;-71
2020/12/26 06:47:29;;;;;;;5.80;3.42;;;6.60;99.90;;;;;;5052646;28;20072;-71
2020/12/26 06:49:54;;;;;;;2.95;2.70;;;6.60;99.90;;;;;;5052239;28;20111;-72
2020/12/26 06:52:39;;;;;;;2.95;2.65;;;6.60;99.90;;;;;;5052508;28;20145;-71
2020/12/26 06:55:04;;;;;;;3.63;3.15;;;6.60;99.90;;;;;;5052815;28;20025;-72
2020/12/26 06:57:37;;;;;;;3.53;3.08;;;6.60;99.90;;;;;;5052429;28;20056;-72
2020/12/26 07:00:26;;;;;;;3.15;2.88;;;6.60;99.90;;;;;;5039735;28;20036;-71
2020/12/26 07:03:16;;;;;;;16.58;3.08;;;6.60;99.90;;;;;;5053167;28;20393;-74
2020/12/26 07:05:43;;;;;;;3.50;3.17;;;6.60;99.90;;;;;;5053014;28;20517;-72
2020/12/26 07:08:26;;;;;;;3.55;2.95;;;6.60;99.90;;;;;;5054539;28;20046;-72
2020/12/26 07:10:53;;;;;;;3.38;2.88;;;6.60;99.90;;;;;;5073343;28;20036;-72
2020/12/26 07:13:54;;;;;;;3.80;3.15;;;6.60;99.90;;;;;;5072987;28;20021;-73
2020/12/26 07:16:35;;;;;;;3.97;3.00;;;6.60;99.90;;;;;;5010730;28;20072;-73
2020/12/26 07:19:19;;;;;;;8.17;3.03;;;6.60;99.90;;;;;;5049129;28;20033;-72
2020/12/26 07:22:09;;;;;;;3.75;3.13;;;6.60;99.90;;;;;;5072679;28;20025;-72
2020/12/26 07:24:36;;;;;;;3.65;3.13;;;6.60;99.90;;;;;;5059598;28;20096;-73
2020/12/26 07:27:18;;;;;;;3.40;3.10;;;6.60;99.90;;;;;;5052546;28;20021;-73
2020/12/26 07:29:47;;;;;;;;;;;6.50;99.90;;;;;;5052759;28;20126;-72
2020/12/26 07:32:35;;;;;;;3.85;3.30;;;6.50;99.90;;;;;;5052525;28;19905;-73
2020/12/26 07:35:01;;;;;;;3.35;3.05;;;6.50;99.90;;;;;;5052282;28;20097;-73
2020/12/26 07:37:26;;;;;;;4.38;3.30;;;6.50;99.90;;;;;;5051826;28;20041;-72
2020/12/26 07:39:52;;;;;;;4.53;3.35;;;6.60;99.90;;;;;;5042860;28;20123;-73
2020/12/26 07:42:18;;;;;;;4.65;3.63;;;6.60;99.90;;;;;;5032385;28;20444;-72
2020/12/26 07:44:44;;;;;;;3.20;2.90;;;6.50;99.90;;;;;;5032412;28;20053;-72
2020/12/26 07:47:12;;;;;;;3.83;3.40;;;6.60;99.90;;;;;;5032453;28;20021;-72
2020/12/26 07:49:37;;;;;;;4.35;3.17;;;6.60;99.90;;;;;;5032147;28;20493;-72
2020/12/26 07:52:06;;;;;;;3.50;3.20;;;6.50;99.90;;;;;;5032279;28;20022;-72
2020/12/26 07:54:32;;;;;;;3.63;3.33;;;6.50;99.90;;;;;;5032111;28;20046;-72
2020/12/26 07:56:58;;;;;;;4.88;3.47;;;6.50;99.90;;;;;;5032354;28;20047;-72
2020/12/26 07:59:24;;;;;;;4.15;3.35;;;6.60;99.90;;;;;;5032393;28;20431;-72
2020/12/26 08:01:58;;;;;;;3.83;3.10;;;6.50;99.90;;;;;;5032265;28;20386;-73
2020/12/26 08:04:24;;;;;;;3.40;3.10;;;6.50;99.90;;;;;;5031703;28;20024;-73
2020/12/26 08:06:51;;;;;;;3.97;2.90;;;6.50;99.90;;;;;;5031778;28;20109;-72
2020/12/26 08:09:18;;;;;;;3.38;3.08;;;6.50;99.90;;;;;;5031368;28;20104;-72
2020/12/26 08:11:44;;;;;;;3.40;3.10;;;6.50;99.90;;;;;;5032084;28;20040;-72
2020/12/26 08:14:13;;;;;;;4.22;3.45;;;6.50;99.90;;;;;;5031797;28;20553;-72
2020/12/26 08:16:39;;;;;;;3.42;2.97;;;6.50;99.90;;;;;;5031780;28;20053;-72
2020/12/26 08:19:05;;;;;;;3.95;3.30;;;6.50;99.90;;;;;;5031895;28;20249;-72
2020/12/26 08:21:31;;;;;;;3.60;3.00;;;6.60;99.90;;;;;;5031397;28;20163;-72
2020/12/26 08:23:59;;;;;;;4.13;3.28;;;6.60;99.90;;;;;;5031596;28;20068;-72
2020/12/26 08:26:26;;;;;;;4.43;3.17;;;6.60;99.90;;;;;;5031735;28;20028;-72
2020/12/26 08:28:55;;;;;;;6.85;3.40;;;6.60;99.90;;;;;;5031725;28;20021;-72
2020/12/26 08:31:23;;;;;;;3.05;2.78;;;6.60;99.90;;;;;;5027233;28;20029;-72
2020/12/26 08:34:01;;;;;;;3.45;3.15;;;6.60;99.90;;;;;;5031251;28;20014;-74
2020/12/26 08:36:37;;;;;;;2.90;2.70;;;6.60;99.90;;;;;;5031075;28;20029;-72
2020/12/26 08:39:05;;;;;;;3.95;3.40;;;6.60;99.90;;;;;;5034700;28;20066;-72
2020/12/26 08:41:32;;;;;;;3.10;2.80;;;6.60;99.90;;;;;;5047352;28;20509;-73
2020/12/26 08:43:58;;;;;;;4.28;3.08;;;6.70;99.90;;;;;;5050993;28;20056;-73
2020/12/26 08:46:28;;;;;;;5.18;3.53;;;6.60;99.90;;;;;;5051094;28;20638;-73
2020/12/26 08:48:57;;;;;;;4.15;3.30;;;6.70;99.90;;;;;;5049374;28;20499;-72
2020/12/26 08:51:27;;;;;;;3.13;2.85;;;6.70;99.90;;;;;;5050042;28;20059;-73
2020/12/26 08:53:56;;;;;;;4.63;3.78;;;6.70;99.90;;;;;;5050717;28;20037;-73
2020/12/26 08:56:38;;;;;;;3.92;3.20;;;6.70;99.90;;;;;;5048768;28;20027;-73
2020/12/26 08:59:05;;;;;;;4.07;3.60;;;6.70;99.90;;;;;;5050619;28;20017;-73
2020/12/26 09:01:31;;;;;;;7.68;3.70;;;6.70;99.90;;;;;;5045865;28;20065;-74
2020/12/26 09:03:57;;;;;;;7.57;5.25;;;6.70;99.90;;;;;;5049059;28;20284;-73
2020/12/26 09:06:40;;;;;;;7.93;5.03;;;6.80;99.90;;;;;;5051139;28;20057;-73
2020/12/26 09:09:24;;;;;;;5.65;3.65;;;6.70;99.90;;;;;;5045151;28;20102;-73
2020/12/26 09:12:05;;;;;;;4.05;3.53;;;6.80;99.90;;;;;;5041257;28;20390;-72
2020/12/26 09:14:32;;;;;;;5.15;3.50;;;6.80;99.90;;;;;;5044728;28;20393;-72
2020/12/26 09:17:00;;;;;;;8.88;2.85;;;6.90;99.90;;;;;;5035922;28;20036;-73
2020/12/26 09:19:27;;;;;;;5.30;4.45;;;7.00;99.90;;;;;;5044531;28;20021;-73
2020/12/26 09:22:07;;;;;;;3.92;3.53;;;7.10;99.90;;;;;;5051652;28;20525;-74
2020/12/26 09:24:32;;;;;;;4.10;3.15;;;7.10;99.90;;;;;;5052974;28;20470;-74
2020/12/26 09:26:58;;;;;;;6.63;3.10;;;7.00;99.90;;;;;;5054294;28;20021;-74
2020/12/26 09:29:25;;;;;;;3.55;3.15;;;7.10;99.90;;;;;;5051918;28;20040;-74
2020/12/26 09:31:52;;;;;;;3.38;3.08;;;7.40;99.90;;;;;;5054869;28;20793;-73
2020/12/26 09:34:25;;;;;;;3.47;2.85;;;7.40;99.90;;;;;;5054836;28;20052;-74
2020/12/26 09:37:08;;;;;;;3.30;2.95;;;7.30;99.90;;;;;;5054852;28;20032;-74
2020/12/26 09:39:34;;;;;;;5.07;3.50;;;7.20;99.90;;;;;;5054603;28;20060;-74
2020/12/26 09:42:00;;;;;;;4.65;3.97;;;7.10;99.90;;;;;;5054667;28;20021;-73
2020/12/26 09:44:25;;;;;;;3.30;3.00;;;7.10;99.90;;;;;;5054584;28;20075;-73
2020/12/26 09:47:17;;;;;;;2.95;2.75;;;7.10;99.90;;;;;;5052753;28;20215;-73
2020/12/26 09:49:43;;;;;;;4.95;3.50;;;7.10;99.90;;;;;;5053483;28;20045;-74
2020/12/26 09:52:08;;;;;;;3.28;2.90;;;7.00;99.90;;;;;;5053834;28;20407;-74
2020/12/26 09:54:34;;;;;;;4.50;3.15;;;7.10;99.90;;;;;;5048479;28;20025;-74
2020/12/26 09:57:00;;;;;;;5.05;3.42;;;7.00;99.90;;;;;;5034087;28;20060;-74
2020/12/26 09:59:25;;;;;;;4.55;3.25;;;7.00;99.90;;;;;;5038349;28;20071;-75
2020/12/26 10:01:51;;;;;;;3.65;3.33;;;7.00;99.90;;;;;;5038074;28;20420;-74
2020/12/26 10:04:16;;;;;;;7.28;3.88;;;7.00;99.90;;;;;;5038649;28;20476;-75
2020/12/26 10:06:44;;;;;;;4.80;4.30;;;7.00;99.90;;;;;;5039034;28;20075;-74
2020/12/26 10:09:09;;;;;;;14.23;6.53;;;7.00;99.90;;;;;;5037260;28;20728;-73
2020/12/26 10:11:35;;;;;;;3.83;3.08;;;7.00;99.90;;;;;;5050317;28;20112;-74
2020/12/26 10:14:01;;;;;;;6.00;4.85;;;7.00;99.90;;;;;;5051262;28;20017;-74
2020/12/26 10:16:26;;;;;;;4.50;3.72;;;6.90;99.90;;;;;;5048980;28;20029;-74
2020/12/26 10:18:52;;;;;;;3.90;3.60;;;6.90;99.90;;;;;;5042960;28;20083;-74
2020/12/26 10:21:18;;;;;;;5.88;4.05;;;6.90;99.90;;;;;;5041720;28;20029;-74
2020/12/26 10:23:44;;;;;;;6.63;3.42;;;6.80;99.90;;;;;;5036194;28;20083;-73
2020/12/26 10:26:10;;;;;;;5.25;4.30;;;6.90;99.90;;;;;;5034647;28;20025;-74
2020/12/26 10:28:36;;;;;;;4.25;3.58;;;6.90;99.90;;;;;;5036532;28;20026;-74
2020/12/26 10:31:02;;;;;;;5.63;4.80;;;6.90;99.90;;;;;;5033209;28;20037;-74
2020/12/26 10:33:28;;;;;;;5.68;4.22;;;6.80;99.90;;;;;;5036247;28;20071;-74
2020/12/26 10:35:54;;;;;;;10.45;7.47;;;6.80;99.90;;;;;;5044035;28;20457;-74
2020/12/26 10:38:20;;;;;;;4.07;3.65;;;6.90;99.90;;;;;;5053954;28;20033;-74
2020/12/26 10:40:45;;;;;;;6.00;4.60;;;6.90;99.90;;;;;;5053609;28;20120;-74
2020/12/26 10:43:11;;;;;;;7.63;5.50;;;7.10;99.90;;;;;;5053611;28;20029;-74
2020/12/26 10:45:37;;;;;;;5.15;3.88;;;7.70;99.90;;;;;;5053298;28;20099;-74
2020/12/26 10:48:03;;;;;;;7.75;5.32;;;7.60;99.90;;;;;;5048981;28;20063;-74
2020/12/26 10:50:28;;;;;;;5.95;4.10;;;7.40;99.90;;;;;;5046461;28;20445;-74
2020/12/26 10:52:54;;;;;;;11.48;6.93;;;7.40;99.90;;;;;;5034085;28;20038;-74
2020/12/26 10:55:19;;;;;;;8.30;6.07;;;7.30;99.90;;;;;;5038420;28;20017;-74
2020/12/26 10:57:45;;;;;;;6.30;4.78;;;7.30;99.90;;;;;;5033534;28;20033;-73
2020/12/26 11:00:12;;;;;;;9.90;3.83;;;7.20;99.90;;;;;;5035660;28;20028;-74
2020/12/26 11:02:37;;;;;;;10.80;6.00;;;7.10;99.90;;;;;;5035365;28;20053;-74
2020/12/26 11:05:05;;;;;;;6.95;4.45;;;7.10;99.90;;;;;;5038545;28;20481;-74
2020/12/26 11:07:31;;;;;;;7.95;5.13;;;7.00;99.90;;;;;;5048451;28;20029;-74
2020/12/26 11:09:56;;;;;;;4.80;4.30;;;7.00;99.90;;;;;;5039472;28;20033;-73
2020/12/26 11:12:22;;;;;;;6.60;4.30;;;7.00;99.90;;;;;;5036075;28;20029;-72
2020/12/26 11:14:48;;;;;;;5.85;4.00;;;7.00;99.90;;;;;;5034801;28;20021;-74
2020/12/26 11:17:13;;;;;;;4.60;3.65;;;6.90;99.90;;;;;;5032015;28;20347;-73
2020/12/26 11:19:40;;;;;;;4.57;3.50;;;6.90;99.90;;;;;;5049672;28;20480;-73
2020/12/26 11:22:06;;;;;;;5.38;4.00;;;6.90;99.90;;;;;;5034662;28;20335;-73
2020/12/26 11:24:31;;;;;;;8.02;5.70;;;7.10;99.90;;;;;;5047903;28;20477;-73
2020/12/26 11:26:57;;;;;;;5.78;4.45;;;7.20;99.90;;;;;;5030596;28;20025;-74
2020/12/26 11:29:22;;;;;;;7.22;4.88;;;7.20;99.90;;;;;;5038333;28;20039;-74
2020/12/26 11:31:49;;;;;;;4.78;4.30;;;7.10;99.90;;;;;;5038245;28;20131;-73
2020/12/26 11:34:15;;;;;;;4.20;3.60;;;7.00;99.90;;;;;;5057824;28;20031;-74
2020/12/26 11:36:41;;;;;;;5.35;4.28;;;7.00;99.90;;;;;;5065919;28;20024;-74
2020/12/26 11:39:08;;;;;;;4.65;3.50;;;7.10;99.90;;;;;;5062529;28;20024;-74
2020/12/26 11:41:34;;;;;;;4.95;3.83;;;7.10;99.90;;;;;;5060521;28;20039;-74
2020/12/26 11:43:59;;;;;;;5.07;3.88;;;7.10;99.90;;;;;;5060297;28;20017;-74
2020/12/26 11:46:25;;;;;;;5.10;3.83;;;7.20;99.90;;;;;;5051922;28;20041;-74
2020/12/26 11:48:51;;;;;;;7.53;4.53;;;7.20;99.90;;;;;;5033075;28;20438;-74
2020/12/26 11:51:17;;;;;;;4.93;4.03;;;7.30;99.90;;;;;;5049754;28;20075;-73
2020/12/26 11:53:43;;;;;;;6.40;4.45;;;7.40;99.90;;;;;;5033364;28;20025;-73
2020/12/26 11:56:14;;;;;;;5.25;3.63;;;7.60;99.90;;;;;;5050862;28;20032;-73
2020/12/26 11:58:40;;;;;;;7.00;4.57;;;7.80;99.90;;;;;;5050895;28;20381;-73
2020/12/26 12:01:07;;;;;;;4.43;3.50;;;7.90;99.90;;;;;;5051019;28;20103;-83
2020/12/26 12:03:34;;;;;;;4.43;3.63;;;8.00;99.90;;;;;;5050644;28;20425;-79
2020/12/26 12:06:00;;;;;;;5.00;4.28;;;8.10;99.90;;;;;;5050440;28;20066;-79
2020/12/26 12:08:26;;;;;;;18.92;6.40;;;8.10;99.90;;;;;;5050818;28;20031;-82
2020/12/26 12:10:52;;;;;;;4.15;3.13;;;8.00;99.90;;;;;;5050164;28;20503;-75
2020/12/26 12:13:19;;;;;;;6.60;3.55;;;8.00;99.90;;;;;;5032015;28;20028;-78
2020/12/26 12:15:44;;;;;;;6.90;3.90;;;8.00;99.90;;;;;;5050094;28;20076;-77
2020/12/26 12:18:10;;;;;;;6.20;4.00;;;7.90;99.90;;;;;;5050493;28;20484;-79
2020/12/26 12:20:37;;;;;;;8.35;4.57;;;7.80;99.90;;;;;;5049436;28;20103;-79
2020/12/26 12:23:03;;;;;;;4.75;3.53;;;7.70;99.90;;;;;;5049480;28;20089;-80
2020/12/26 12:25:29;;;;;;;5.35;4.03;;;7.70;99.90;;;;;;5050441;28;20021;-80
2020/12/26 12:27:56;;;;;;;4.55;3.75;;;7.50;99.90;;;;;;5049561;28;20060;-77
2020/12/26 12:30:26;;;;;;;5.38;3.83;;;7.50;99.90;;;;;;5048243;28;20489;-78
2020/12/26 12:32:52;;;;;;;8.45;4.68;;;7.50;99.90;;;;;;5053212;28;20495;-76
2020/12/26 12:35:19;;;;;;;40.65;14.13;;;7.30;99.90;;;;;;5049077;28;20036;-79
2020/12/26 12:37:46;;;;;;;5.22;4.07;;;7.30;99.90;;;;;;5049985;28;20409;-79
2020/12/26 12:40:12;;;;;;;8.82;5.25;;;7.30;99.90;;;;;;5050394;28;20064;-81
2020/12/26 12:42:37;;;;;;;6.50;4.50;;;7.30;99.90;;;;;;5051030;28;20118;-78
2020/12/26 12:45:03;;;;;;;8.80;5.00;;;7.30;99.90;;;;;;5050591;28;20028;-78
2020/12/26 12:47:28;;;;;;;6.18;4.35;;;7.30;99.90;;;;;;5050617;28;20021;-78
2020/12/26 12:49:54;;;;;;;15.63;6.97;;;7.40;99.90;;;;;;5049694;28;20571;-78
2020/12/26 12:52:20;;;;;;;14.52;6.50;;;7.40;99.90;;;;;;5049379;28;20435;-78
2020/12/26 12:54:46;;;;;;;6.30;4.60;;;7.40;99.90;;;;;;5028179;28;20029;-78
2020/12/26 12:57:12;;;;;;;9.20;5.18;;;7.40;99.90;;;;;;5040864;28;20032;-76
2020/12/26 12:59:39;;;;;;;12.10;8.55;;;7.40;99.90;;;;;;5047268;28;20025;-76
2020/12/26 13:02:06;;;;;;;8.90;5.57;;;7.30;99.90;;;;;;5042775;28;20051;-76